Time;durP1;ratioP1;P1;durP2;ratioP2;P2;SDS_P1;SDS_P2;PMS_P1;PMS_P2;Temp;Humidity;BMP_temperature;BMP_pressure;BME280_temperature;BME280_humidity;BME280_pressure;Samples;Min_cycle;Max_cycle;Signal;HPM_P1;HPM_P2
2022/04/19 00:00:54;;;;;;;6.67;2.90;;;;;;;6.92;46.39;98747.98;1761562;81;20983;-37
2022/04/19 00:03:20;;;;;;;6.05;3.22;;;;;;;6.88;48.40;98751.67;1761618;81;21461;-37
2022/04/19 00:05:47;;;;;;;7.15;3.30;;;;;;;6.80;48.05;98741.20;1761522;81;20968;-37
2022/04/19 00:08:16;;;;;;;6.20;3.83;;;;;;;6.78;48.31;98746.97;1761739;81;21410;-38
2022/04/19 00:10:42;;;;;;;7.10;3.60;;;;;;;6.72;49.81;98742.42;1761413;81;20967;-39
2022/04/19 00:13:11;;;;;;;3.67;2.80;;;;;;;6.72;48.60;98749.42;1761688;81;21038;-39
2022/04/19 00:15:38;;;;;;;5.28;3.20;;;;;;;6.71;49.42;98746.41;1761370;81;21034;-37
2022/04/19 00:18:06;;;;;;;4.62;3.30;;;;;;;6.73;49.33;98749.79;1761556;81;20968;-39
2022/04/19 00:20:33;;;;;;;4.95;3.05;;;;;;;6.71;50.96;98742.49;1761643;81;21333;-36
2022/04/19 00:23:00;;;;;;;5.40;3.03;;;;;;;6.71;49.27;98750.33;1761623;81;21003;-37
2022/04/19 00:25:26;;;;;;;4.17;3.05;;;;;;;6.67;50.39;98746.18;1761703;81;20990;-37
2022/04/19 00:27:52;;;;;;;5.67;3.62;;;;;;;6.65;50.69;98742.80;1761379;80;20964;-37
2022/04/19 00:30:18;;;;;;;4.33;2.90;;;;;;;6.62;51.77;98742.94;1761153;81;21011;-38
2022/04/19 00:32:44;;;;;;;4.92;3.15;;;;;;;6.63;51.31;98749.86;1761411;81;20987;-36
2022/04/19 00:35:11;;;;;;;5.75;3.55;;;;;;;6.60;51.03;98748.23;1761435;81;21027;-38
2022/04/19 00:37:38;;;;;;;6.67;3.02;;;;;;;6.58;51.73;98737.01;1761549;81;21497;-36
2022/04/19 00:40:08;;;;;;;4.30;2.72;;;;;;;6.56;51.77;98736.71;1761581;81;20963;-36
2022/04/19 00:42:35;;;;;;;5.75;3.20;;;;;;;6.54;52.05;98742.00;1761372;80;21028;-36
2022/04/19 00:45:05;;;;;;;5.08;3.25;;;;;;;6.52;52.12;98734.23;1761522;81;20995;-38
2022/04/19 00:47:32;;;;;;;6.75;3.33;;;;;;;6.48;52.92;98730.08;1759879;81;21043;-38
2022/04/19 00:50:03;;;;;;;5.15;3.50;;;;;;;6.49;52.24;98726.56;1748221;81;21176;-37
2022/04/19 00:52:31;;;;;;;5.65;3.58;;;;;;;6.45;53.70;98726.77;1748112;81;20976;-38
2022/04/19 00:54:59;;;;;;;5.60;3.60;;;;;;;6.41;53.64;98721.31;1747489;81;21035;-38
2022/04/19 00:57:26;;;;;;;5.40;3.60;;;;;;;6.40;53.83;98720.44;1748019;81;20960;-37
2022/04/19 00:59:54;;;;;;;6.28;3.60;;;;;;;6.37;53.57;98714.08;1748210;81;21315;-36
2022/04/19 01:02:20;;;;;;;4.67;3.30;;;;;;;6.37;54.09;98707.55;1748016;81;21492;-36
2022/04/19 01:04:47;;;;;;;6.95;3.55;;;;;;;6.33;54.97;98702.06;1748118;81;21497;-36
2022/04/19 01:07:13;;;;;;;6.83;3.60;;;;;;;6.31;54.82;98703.47;1748070;81;20984;-37
2022/04/19 01:09:39;;;;;;;5.92;3.22;;;;;;;6.26;55.24;98700.69;1748024;81;20971;-37
2022/04/19 01:14:53;;;;;;;;;;;;;;;6.26;56.49;98692.39;1749899;81;21078;-37
2022/04/19 01:17:19;;;;;;;;;;;;;;;6.20;58.06;98692.66;1749291;81;20140;-37
2022/04/19 01:19:46;;;;;;;6.72;3.72;;;;;;;6.22;58.38;98691.28;1746929;81;20129;-37
2022/04/19 01:22:12;;;;;;;8.50;3.92;;;;;;;6.22;57.32;98688.67;1736321;82;21051;-38
2022/04/19 01:24:43;;;;;;;7.53;3.50;;;;;;;6.22;56.90;98689.98;1746776;82;21009;-46
2022/04/19 01:27:10;;;;;;;6.45;3.67;;;;;;;6.25;57.31;98688.54;1748071;81;21008;-35
2022/04/19 01:29:36;;;;;;;7.05;3.95;;;;;;;6.28;55.53;98671.44;1748019;81;20999;-36
2022/04/19 01:32:05;;;;;;;7.47;3.80;;;;;;;6.33;55.23;98673.34;1748014;81;21027;-35
2022/04/19 01:34:31;;;;;;;6.17;3.30;;;;;;;6.34;56.50;98675.05;1747939;81;21480;-35
2022/04/19 01:36:57;;;;;;;4.33;3.05;;;;;;;6.32;56.71;98662.52;1747951;81;20987;-40
2022/04/19 01:42:08;;;;;;;6.90;3.15;;;;;;;6.25;56.56;98665.04;1747979;81;20971;-37
2022/04/19 01:44:34;;;;;;;8.43;3.50;;;;;;;6.22;57.64;98656.91;1748100;82;20987;-36
2022/04/19 01:47:06;;;;;;;6.97;3.15;;;;;;;6.24;57.38;98667.25;1747873;81;21126;-36
2022/04/19 01:49:30;;;;;;;7.30;3.25;;;;;;;6.26;58.28;98660.22;1758344;81;21042;-35
2022/04/19 01:51:56;;;;;;;5.58;3.20;;;;;;;6.27;57.19;98655.36;1761327;80;20991;-35
2022/04/19 01:54:22;;;;;;;8.65;3.67;;;;;;;6.27;58.25;98657.98;1761328;81;20980;-37
2022/04/19 01:56:48;;;;;;;4.80;3.20;;;;;;;6.28;57.79;98663.59;1761310;80;20987;-36
2022/04/19 01:59:14;;;;;;;5.72;2.90;;;;;;;6.33;57.89;98665.06;1761391;81;21052;-36
2022/04/19 02:01:41;;;;;;;4.00;2.83;;;;;;;6.31;58.90;98658.20;1761560;81;21018;-36
2022/04/19 02:04:08;;;;;;;9.10;3.22;;;;;;;6.32;58.79;98660.75;1761518;81;20964;-36
2022/04/19 02:06:33;;;;;;;5.42;3.05;;;;;;;6.34;58.45;98663.30;1761335;81;21022;-35
2022/04/19 02:09:02;;;;;;;5.80;3.05;;;;;;;6.30;60.77;98664.37;1761381;80;20967;-36
2022/04/19 02:11:26;;;;;;;;;;;;;;;6.28;59.97;98659.69;1763832;81;20968;-39
2022/04/19 02:13:52;;;;;;;4.30;2.72;;;;;;;6.27;62.83;98661.42;1761344;81;20136;-38
2022/04/19 02:16:21;;;;;;;9.25;3.58;;;;;;;6.30;62.16;98654.76;1761303;81;20991;-37
2022/04/19 02:18:45;;;;;;;;;;;;;;;6.27;63.07;98662.73;1763764;81;20967;-38
2022/04/19 02:21:11;;;;;;;8.43;3.20;;;;;;;6.23;65.08;98662.50;1761362;81;20433;-37
2022/04/19 02:23:37;;;;;;;5.70;3.05;;;;;;;6.19;60.90;98666.18;1761290;81;20991;-36
2022/04/19 02:26:03;;;;;;;7.25;3.60;;;;;;;6.11;60.14;98661.77;1761293;81;20964;-35
2022/04/19 02:28:29;;;;;;;7.92;3.37;;;;;;;5.98;64.48;98665.41;1761302;81;21501;-36
2022/04/19 02:30:55;;;;;;;6.72;3.40;;;;;;;5.84;64.04;98663.42;1761248;81;21034;-37
2022/04/19 02:33:21;;;;;;;3.77;3.10;;;;;;;5.80;65.80;98663.62;1761630;81;20960;-36
2022/04/19 02:35:47;;;;;;;9.35;3.70;;;;;;;5.67;65.40;98666.78;1761292;81;21019;-37
2022/04/19 02:38:13;;;;;;;4.17;3.42;;;;;;;5.44;66.11;98663.92;1761283;81;21033;-35
2022/04/19 02:43:13;;;;;;;4.97;3.55;;;;;;;5.39;67.13;98666.72;1717728;80;21100;-36
2022/04/19 02:45:41;;;;;;;5.75;3.60;;;;;;;5.28;69.53;98662.45;1720369;83;21147;-35
2022/04/19 02:48:08;;;;;;;6.03;3.40;;;;;;;5.18;69.27;98663.75;1720902;83;21017;-34
2022/04/19 02:50:40;;;;;;;;;;;;;;;5.04;69.21;98659.15;1723566;83;21049;-35
2022/04/19 02:53:06;;;;;;;7.67;3.87;;;;;;;4.97;68.43;98659.86;1720039;83;20166;-35
2022/04/19 02:55:32;;;;;;;5.33;3.85;;;;;;;4.83;72.73;98654.84;1720884;83;21513;-35
2022/04/19 02:57:58;;;;;;;5.58;3.27;;;;;;;4.79;72.59;98655.43;1720940;83;20969;-34
2022/04/19 03:00:24;;;;;;;5.72;3.83;;;;;;;4.88;68.57;98655.04;1720925;83;21009;-37
2022/04/19 03:02:51;;;;;;;4.35;3.37;;;;;;;4.84;70.11;98653.48;1720977;83;21501;-36
2022/04/19 03:05:19;;;;;;;5.75;3.85;;;;;;;4.71;72.22;98650.98;1721043;83;21008;-35
2022/04/19 03:07:45;;;;;;;;;;;;;;;4.76;74.74;98654.24;1723421;83;21009;-35
2022/04/19 03:10:11;;;;;;;5.33;3.45;;;;;;;4.80;75.62;98647.98;1720681;83;20142;-36
2022/04/19 03:12:37;;;;;;;5.65;3.98;;;;;;;4.89;73.10;98654.11;1720780;83;21000;-35
2022/04/19 03:15:03;;;;;;;3.75;3.17;;;;;;;4.85;74.75;98657.77;1720851;83;21005;-36
2022/04/19 03:17:29;;;;;;;5.35;3.42;;;;;;;4.90;73.71;98658.42;1720903;83;20981;-35
2022/04/19 03:19:55;;;;;;;5.92;4.08;;;;;;;4.91;72.34;98654.05;1720809;83;21008;-36
2022/04/19 03:22:20;;;;;;;9.73;3.95;;;;;;;4.90;74.54;98655.81;1720793;83;21013;-37
2022/04/19 03:27:42;;;;;;;5.20;4.00;;;;;;;4.99;73.43;98656.72;1720004;83;21025;-38
2022/04/19 03:30:14;;;;;;;;;;;;;;;4.88;73.83;98652.44;1722759;83;21016;-35
2022/04/19 03:32:43;;;;;;;5.08;3.92;;;;;;;4.82;75.77;98656.61;1720810;83;20137;-36
2022/04/19 03:35:10;;;;;;;6.62;4.37;;;;;;;4.74;76.52;98651.70;1720508;83;20969;-35
2022/04/19 03:37:39;;;;;;;6.05;4.75;;;;;;;4.74;76.37;98659.52;1720923;83;21012;-35
2022/04/19 03:40:07;;;;;;;9.15;5.20;;;;;;;4.81;75.45;98655.73;1720808;83;20969;-35
2022/04/19 03:42:33;;;;;;;8.65;4.45;;;;;;;4.82;79.64;98651.41;1720863;83;21035;-35
2022/04/19 03:44:59;;;;;;;9.78;4.22;;;;;;;4.91;75.97;98656.22;1713487;84;20996;-36
2022/04/19 03:47:25;;;;;;;5.40;4.33;;;;;;;4.83;76.18;98656.14;1713547;83;21639;-36
2022/04/19 03:49:51;;;;;;;8.28;4.05;;;;;;;4.87;77.28;98657.70;1713584;83;21045;-35
2022/04/19 03:52:16;;;;;;;4.72;4.10;;;;;;;4.90;76.87;98657.58;1713554;84;21005;-36
2022/04/19 03:54:42;;;;;;;5.10;4.12;;;;;;;4.86;77.38;98658.17;1713485;83;21026;-35
2022/04/19 03:57:09;;;;;;;6.33;4.08;;;;;;;4.88;76.89;98661.55;1713531;83;21013;-36
2022/04/19 03:59:38;;;;;;;6.92;4.60;;;;;;;4.89;77.48;98663.23;1713667;84;21021;-35
2022/04/19 04:02:07;;;;;;;5.87;3.98;;;;;;;4.87;78.18;98657.70;1713509;84;21004;-36
2022/04/19 04:04:35;;;;;;;5.08;4.53;;;;;;;4.91;77.44;98662.73;1713520;83;21017;-37
2022/04/19 04:07:06;;;;;;;8.03;5.28;;;;;;;4.90;78.08;98659.72;1713472;83;21528;-36
2022/04/19 04:09:35;;;;;;;8.08;5.22;;;;;;;4.90;78.04;98661.02;1713534;83;21509;-35
2022/04/19 04:12:09;;;;;;;7.17;4.95;;;;;;;4.92;77.41;98660.97;1713537;83;21052;-36
2022/04/19 04:14:37;;;;;;;7.80;5.05;;;;;;;4.93;77.67;98660.03;1713579;83;20997;-35
2022/04/19 04:17:03;;;;;;;8.75;4.67;;;;;;;4.94;78.50;98663.05;1712462;83;21036;-36
2022/04/19 04:19:29;;;;;;;5.95;4.17;;;;;;;4.93;77.61;98666.12;1713601;84;20997;-36
2022/04/19 04:21:55;;;;;;;5.25;4.42;;;;;;;4.94;78.33;98660.44;1713499;83;21049;-36
2022/04/19 04:24:21;;;;;;;6.55;4.95;;;;;;;5.00;79.13;98666.25;1713463;84;21008;-36
2022/04/19 04:26:47;;;;;;;11.08;5.37;;;;;;;5.07;79.02;98660.77;1713480;84;21024;-37
2022/04/19 04:29:13;;;;;;;6.12;4.30;;;;;;;5.09;79.59;98664.98;1713592;84;21001;-37
2022/04/19 04:31:39;;;;;;;8.28;4.50;;;;;;;5.12;78.02;98665.33;1713510;83;21032;-35
2022/04/19 04:34:06;;;;;;;4.70;4.10;;;;;;;5.11;78.17;98665.80;1713482;83;21492;-35
2022/04/19 04:36:33;;;;;;;7.03;4.37;;;;;;;5.18;77.05;98671.56;1713653;84;21031;-34
2022/04/19 04:38:59;;;;;;;4.60;4.17;;;;;;;5.16;74.83;98667.72;1713532;83;20977;-35
2022/04/19 04:41:25;;;;;;;9.73;4.58;;;;;;;4.99;77.16;98664.54;1713690;84;20996;-35
2022/04/19 04:43:50;;;;;;;6.10;4.33;;;;;;;4.95;76.80;98670.80;1713243;83;21068;-35
2022/04/19 04:51:44;;;;;;;12.90;4.97;;;;;;;4.92;76.68;98674.83;1713229;84;21442;-45
2022/04/19 04:54:09;;;;;;;9.50;4.62;;;;;;;4.98;77.49;98675.89;1713261;83;21013;-37
2022/04/19 04:56:35;;;;;;;7.97;4.28;;;;;;;4.96;77.31;98670.34;1713218;83;21153;-36
2022/04/19 04:59:01;;;;;;;9.95;6.12;;;;;;;5.05;75.14;98679.06;1713187;83;20985;-35
2022/04/19 05:01:27;;;;;;;11.63;4.53;;;;;;;5.02;76.43;98674.44;1713209;84;21009;-37
2022/04/19 05:03:52;;;;;;;8.73;4.47;;;;;;;5.03;76.09;98674.84;1713213;83;21024;-36
2022/04/19 05:06:18;;;;;;;6.55;4.67;;;;;;;4.93;77.81;98676.54;1713230;84;21020;-35
2022/04/19 05:08:44;;;;;;;8.23;4.22;;;;;;;4.96;76.62;98680.30;1713312;84;21013;-35
2022/04/19 05:11:10;;;;;;;7.12;4.30;;;;;;;4.92;77.21;98679.20;1713181;84;21056;-36
2022/04/19 05:13:35;;;;;;;6.08;3.92;;;;;;;4.93;76.01;98675.23;1713160;84;21404;-36
2022/04/19 05:16:01;;;;;;;6.87;3.70;;;;;;;4.80;78.65;98683.16;1713425;84;21056;-37
2022/04/19 05:18:28;;;;;;;5.22;3.72;;;;;;;4.87;77.24;98682.45;1713216;84;21040;-37
2022/04/19 05:20:54;;;;;;;6.37;4.15;;;;;;;4.95;76.68;98677.78;1713203;84;20989;-36
2022/04/19 05:23:21;;;;;;;5.40;3.85;;;;;;;4.97;76.41;98679.40;1693177;84;21009;-37
2022/04/19 05:25:47;;;;;;;7.33;3.83;;;;;;;5.05;78.40;98682.14;1713494;84;21532;-37
2022/04/19 05:28:13;;;;;;;4.33;3.70;;;;;;;5.08;77.75;98679.41;1713171;83;21521;-37
2022/04/19 05:30:39;;;;;;;5.07;3.43;;;;;;;5.11;77.55;98682.73;1713443;83;21414;-37
2022/04/19 05:33:05;;;;;;;6.90;3.58;;;;;;;5.18;78.05;98684.16;1713223;84;21312;-38
2022/04/19 05:35:32;;;;;;;6.08;3.02;;;;;;;5.27;79.07;98689.87;1713217;84;21343;-35
2022/04/19 05:37:59;;;;;;;4.08;3.67;;;;;;;5.33;76.59;98682.65;1713348;83;21470;-37
2022/04/19 05:40:26;;;;;;;8.18;3.60;;;;;;;5.32;77.58;98688.77;1713457;83;21005;-36
2022/04/19 05:42:52;;;;;;;3.60;3.25;;;;;;;5.40;78.14;98689.73;1713139;83;21048;-36
2022/04/19 05:45:18;;;;;;;6.58;3.67;;;;;;;5.47;77.38;98691.62;1713184;84;21031;-38
2022/04/19 05:47:44;;;;;;;4.92;3.22;;;;;;;5.45;77.49;98686.47;1713215;83;21005;-38
2022/04/19 05:50:10;;;;;;;4.65;3.33;;;;;;;5.52;76.63;98691.80;1713199;84;21001;-38
2022/04/19 05:52:37;;;;;;;4.55;3.10;;;;;;;5.52;76.83;98691.80;1713434;84;21025;-38
2022/04/19 05:55:04;;;;;;;4.00;3.27;;;;;;;5.60;78.04;98692.75;1713238;83;21044;-36
2022/04/19 05:57:30;;;;;;;3.95;3.40;;;;;;;5.65;77.07;98697.78;1713284;83;21036;-37
2022/04/19 05:59:56;;;;;;;5.20;3.52;;;;;;;5.68;76.58;98695.88;1713262;84;21000;-36
2022/04/19 06:05:07;;;;;;;6.70;4.22;;;;;;;5.74;75.87;98703.42;1713220;83;21033;-37
2022/04/19 06:07:32;;;;;;;7.72;3.98;;;;;;;5.79;75.25;98701.09;1713291;84;21009;-35
2022/04/19 06:09:59;;;;;;;4.37;3.60;;;;;;;5.83;76.55;98702.63;1713218;83;21490;-37
2022/04/19 06:12:25;;;;;;;4.80;3.65;;;;;;;5.80;76.28;98711.89;1713511;84;21040;-36
2022/04/19 06:14:52;;;;;;;7.95;4.28;;;;;;;5.82;75.69;98709.62;1713164;84;21047;-36
2022/04/19 06:17:18;;;;;;;5.80;3.77;;;;;;;5.88;75.10;98712.41;1713172;83;20993;-37
2022/04/19 06:19:44;;;;;;;6.75;3.90;;;;;;;5.89;75.24;98714.92;1713197;83;21000;-36
2022/04/19 06:22:10;;;;;;;6.10;3.87;;;;;;;5.91;74.64;98716.16;1713130;83;21447;-38
2022/04/19 06:24:37;;;;;;;5.45;3.33;;;;;;;5.95;74.99;98719.05;1713154;83;21055;-39
2022/04/19 06:27:04;;;;;;;3.95;3.55;;;;;;;5.95;74.90;98717.74;1713551;83;21005;-39
2022/04/19 06:29:29;;;;;;;4.78;4.03;;;;;;;5.94;74.56;98723.86;1713417;83;21040;-37
2022/04/19 06:31:56;;;;;;;8.43;4.33;;;;;;;5.88;75.07;98727.59;1713150;84;21000;-39
2022/04/19 06:34:22;;;;;;;5.97;3.98;;;;;;;5.97;74.80;98730.30;1713149;83;21008;-41
2022/04/19 06:36:48;;;;;;;5.12;3.90;;;;;;;6.06;74.60;98728.56;1713154;83;21008;-39
2022/04/19 06:39:13;;;;;;;5.40;3.90;;;;;;;6.19;73.66;98726.70;1713178;84;21087;-38
2022/04/19 06:41:41;;;;;;;5.58;4.20;;;;;;;6.22;74.48;98724.80;1713149;83;21009;-39
2022/04/19 06:44:08;;;;;;;5.33;4.30;;;;;;;6.27;75.72;98729.78;1713385;83;21506;-39
2022/04/19 06:46:36;;;;;;;3.90;3.50;;;;;;;6.34;74.31;98732.50;1713644;84;21561;-38
2022/04/19 06:49:05;;;;;;;4.45;3.60;;;;;;;6.35;73.93;98735.51;1713452;84;21013;-35
2022/04/19 06:51:32;;;;;;;4.05;2.92;;;;;;;6.33;74.00;98731.66;1713266;83;20973;-36
2022/04/19 06:53:58;;;;;;;5.63;4.03;;;;;;;6.34;74.19;98731.19;1713629;84;21064;-39
2022/04/19 06:56:24;;;;;;;5.25;3.67;;;;;;;6.36;73.79;98734.58;1713483;83;21454;-38
2022/04/19 06:58:50;;;;;;;7.00;3.98;;;;;;;6.33;74.00;98741.23;1713497;84;21028;-39
2022/04/19 07:01:17;;;;;;;4.50;3.67;;;;;;;6.37;73.77;98741.50;1713405;84;21005;-37
2022/04/19 07:03:42;;;;;;;4.10;3.60;;;;;;;6.39;73.69;98744.89;1713372;84;21000;-36
2022/04/19 07:06:08;;;;;;;5.65;3.67;;;;;;;6.38;73.40;98749.70;1713375;84;20985;-38
2022/04/19 07:08:34;;;;;;;8.45;4.55;;;;;;;6.38;72.60;98757.54;1713463;84;21048;-39
2022/04/19 07:11:03;;;;;;;13.48;6.75;;;;;;;6.33;74.45;98755.59;1713412;84;21012;-39
2022/04/19 07:13:30;;;;;;;12.85;8.38;;;;;;;6.34;74.16;98762.06;1713389;83;21578;-38
2022/04/19 07:15:55;;;;;;;18.32;9.90;;;;;;;6.46;73.19;98756.73;1713398;84;21558;-40
2022/04/19 07:18:24;;;;;;;11.45;7.72;;;;;;;6.52;72.93;98755.59;1713361;84;21044;-40
